createdAt,value
2018-09-18T00:00:20.126Z,2.80
2018-09-18T00:02:47.919Z,2.90
2018-09-18T00:05:15.523Z,3.33
2018-09-18T00:07:43.197Z,3.47
2018-09-18T00:10:10.818Z,3.70
2018-09-18T00:12:38.382Z,3.40
2018-09-18T00:15:06.114Z,3.30
2018-09-18T00:17:33.818Z,3.83
2018-09-18T00:20:01.505Z,3.33
2018-09-18T00:22:30.170Z,2.77
2018-09-18T00:24:57.815Z,2.20
2018-09-18T00:27:25.472Z,3.17
2018-09-18T00:29:53.106Z,3.00
2018-09-18T00:32:20.786Z,3.43
2018-09-18T00:34:48.453Z,3.33
2018-09-18T00:37:16.215Z,3.43
2018-09-18T00:39:43.882Z,3.63
2018-09-18T00:42:11.538Z,4.20
2018-09-18T00:44:39.190Z,4.07
2018-09-18T00:47:06.890Z,3.43
2018-09-18T00:49:34.550Z,2.90
2018-09-18T00:52:02.262Z,3.00
2018-09-18T00:54:29.957Z,3.80
2018-09-18T00:56:57.606Z,3.10
2018-09-18T00:59:25.218Z,3.10
2018-09-18T01:01:52.859Z,4.23
2018-09-18T01:04:20.519Z,3.67
2018-09-18T01:06:48.178Z,3.80
2018-09-18T01:09:15.826Z,2.60
2018-09-18T01:11:43.439Z,3.77
2018-09-18T01:14:11.058Z,3.27
2018-09-18T01:16:38.696Z,3.70
2018-09-18T01:19:06.390Z,3.87
2018-09-18T01:21:34.050Z,3.40
2018-09-18T01:24:01.698Z,3.27
2018-09-18T01:26:29.362Z,3.87
2018-09-18T01:28:56.966Z,3.40
2018-09-18T01:31:27.878Z,3.67
2018-09-18T01:33:55.978Z,3.50
2018-09-18T01:36:23.643Z,3.33
2018-09-18T01:38:51.339Z,3.73
2018-09-18T01:41:19.065Z,4.00
2018-09-18T01:43:46.842Z,3.60
2018-09-18T01:46:14.482Z,2.70
2018-09-18T01:48:42.145Z,3.23
2018-09-18T01:51:09.774Z,3.37
2018-09-18T01:53:37.390Z,2.67
2018-09-18T01:56:05.044Z,3.23
2018-09-18T01:58:32.663Z,3.80
2018-09-18T02:01:00.339Z,4.20
2018-09-18T02:03:27.942Z,3.70
2018-09-18T02:05:55.830Z,3.30
2018-09-18T02:08:23.506Z,3.77
2018-09-18T02:10:51.190Z,3.13
2018-09-18T02:13:18.865Z,4.10
2018-09-18T02:15:46.494Z,3.57
2018-09-18T02:18:14.142Z,3.03
2018-09-18T02:20:45.275Z,4.40
2018-09-18T02:23:12.958Z,3.57
2018-09-18T02:25:40.608Z,3.73
2018-09-18T02:28:09.270Z,3.90
2018-09-18T02:30:36.874Z,3.67
2018-09-18T02:33:04.498Z,3.60
2018-09-18T02:35:32.064Z,3.20
2018-09-18T02:37:59.723Z,3.50
2018-09-18T02:40:27.422Z,3.03
2018-09-18T02:42:55.151Z,3.43
2018-09-18T02:45:22.771Z,3.53
2018-09-18T02:47:50.493Z,4.27
2018-09-18T02:50:18.151Z,4.93
2018-09-18T02:52:45.806Z,3.50
2018-09-18T02:55:13.502Z,3.40
2018-09-18T02:57:41.179Z,3.60
2018-09-18T03:00:09.121Z,3.40
2018-09-18T03:02:36.779Z,3.67
2018-09-18T03:05:04.515Z,3.40
2018-09-18T03:07:32.198Z,3.43
2018-09-18T03:09:59.886Z,3.47
2018-09-18T03:12:27.514Z,3.73
2018-09-18T03:14:55.186Z,3.47
2018-09-18T03:17:22.909Z,3.90
2018-09-18T03:19:50.662Z,3.20
2018-09-18T03:22:18.263Z,3.30
2018-09-18T03:24:45.987Z,3.90
2018-09-18T03:27:13.710Z,3.30
2018-09-18T03:29:41.363Z,4.07
2018-09-18T03:32:09.010Z,3.97
2018-09-18T03:34:36.619Z,2.73
2018-09-18T03:37:07.900Z,3.43
2018-09-18T03:39:35.555Z,2.90
2018-09-18T03:42:03.214Z,3.50
2018-09-18T03:44:31.739Z,4.77
2018-09-18T03:46:59.399Z,3.93
2018-09-18T03:49:27.026Z,4.03
2018-09-18T03:51:54.759Z,3.23
2018-09-18T03:54:22.430Z,3.33
2018-09-18T03:56:50.141Z,4.13
2018-09-18T03:59:17.768Z,3.97
2018-09-18T04:01:48.464Z,3.27
2018-09-18T04:04:16.147Z,3.57
2018-09-18T04:06:43.760Z,4.17
2018-09-18T04:09:11.921Z,3.73
2018-09-18T04:11:40.216Z,4.30
2018-09-18T04:14:07.908Z,3.80
2018-09-18T04:16:35.537Z,3.00
2018-09-18T04:19:03.183Z,3.93
2018-09-18T04:21:34.343Z,3.90
2018-09-18T04:24:02.002Z,3.70
2018-09-18T04:26:29.683Z,4.07
2018-09-18T04:28:57.346Z,3.50
2018-09-18T04:31:25.034Z,4.17
2018-09-18T04:33:52.614Z,3.30
2018-09-18T04:36:20.349Z,2.97
2018-09-18T04:38:47.962Z,4.40
2018-09-18T04:41:15.653Z,4.40
2018-09-18T04:43:43.267Z,4.00
2018-09-18T04:46:10.972Z,3.60
2018-09-18T04:48:38.664Z,3.60
2018-09-18T04:51:06.327Z,4.27
2018-09-18T04:53:34.002Z,3.70
2018-09-18T04:56:01.686Z,3.70
2018-09-18T04:58:29.314Z,3.23
2018-09-18T05:00:56.990Z,4.20
2018-09-18T05:03:24.629Z,3.30
2018-09-18T05:05:52.326Z,3.30
2018-09-18T05:08:20.027Z,3.30
2018-09-18T05:10:47.675Z,3.33
2018-09-18T05:13:15.379Z,3.13
2018-09-18T05:15:43.029Z,3.83
2018-09-18T05:18:10.755Z,4.00
2018-09-18T05:20:38.430Z,3.70
2018-09-18T05:23:06.063Z,4.13
2018-09-18T05:25:33.845Z,3.90
2018-09-18T05:28:01.423Z,4.67
2018-09-18T05:30:29.115Z,4.00
2018-09-18T05:32:56.846Z,4.43
2018-09-18T05:35:24.995Z,3.33
2018-09-18T05:37:52.630Z,3.40
2018-09-18T18:15:35.732Z,4.23
2018-09-18T18:18:03.303Z,4.37
2018-09-18T18:20:31.219Z,4.57
2018-09-18T18:22:58.831Z,4.43
2018-09-18T18:25:26.416Z,4.37
2018-09-18T18:27:54.315Z,4.53
2018-09-18T18:30:22.031Z,4.73
2018-09-18T18:32:49.791Z,5.77
2018-09-18T18:35:17.678Z,3.90
2018-09-18T18:37:45.480Z,4.43
2018-09-18T18:40:13.360Z,4.70
2018-09-18T18:42:41.918Z,4.37
2018-09-18T18:45:10.793Z,5.10
2018-09-18T18:47:39.578Z,4.10
2018-09-18T18:50:08.586Z,5.20
2018-09-18T18:52:38.119Z,4.97
2018-09-18T18:55:08.156Z,4.40
2018-09-18T18:57:43.498Z,4.80
2018-09-18T19:00:13.459Z,4.47
2018-09-18T19:02:43.504Z,5.10
2018-09-18T19:05:13.291Z,5.30
2018-09-18T19:07:43.633Z,6.13
2018-09-18T19:10:13.741Z,5.50
2018-09-18T19:12:43.734Z,4.80
2018-09-18T19:15:13.793Z,5.90
2018-09-18T19:17:43.845Z,5.20
2018-09-18T19:20:14.042Z,5.57
2018-09-18T19:22:44.114Z,5.37
2018-09-18T19:25:14.123Z,5.93
2018-09-18T19:27:44.184Z,5.90
2018-09-18T19:30:14.289Z,5.63
2018-09-18T19:32:44.544Z,5.70
2018-09-18T19:35:14.752Z,6.30
2018-09-18T19:37:44.807Z,6.77
2018-09-18T19:40:15.019Z,5.33
2018-09-18T19:42:47.183Z,5.90
2018-09-18T19:45:17.448Z,6.10
2018-09-18T19:47:47.507Z,5.57
2018-09-18T19:50:18.636Z,7.43
2018-09-18T19:52:49.239Z,4.97
2018-09-18T19:55:28.396Z,6.77
2018-09-18T19:57:58.002Z,8.20
2018-09-18T20:00:27.992Z,7.07
2018-09-18T20:03:01.086Z,5.30
2018-09-18T20:05:31.229Z,5.10
2018-09-18T20:08:01.465Z,6.17
2018-09-18T20:10:31.581Z,5.50
2018-09-18T20:13:01.819Z,5.17
2018-09-18T20:15:32.101Z,6.10
2018-09-18T20:18:02.496Z,5.10
2018-09-18T20:20:32.222Z,5.30
2018-09-18T20:23:00.867Z,4.90
2018-09-18T20:25:29.309Z,5.33
2018-09-18T20:27:57.362Z,5.20
2018-09-18T20:30:26.329Z,5.00
2018-09-18T20:32:54.060Z,5.20
2018-09-18T20:35:21.765Z,4.37
2018-09-18T20:37:49.519Z,5.70
2018-09-18T20:40:17.302Z,4.93
2018-09-18T20:42:48.800Z,5.03
2018-09-18T20:45:16.506Z,5.30
2018-09-18T20:47:44.276Z,4.67
2018-09-18T20:50:12.032Z,5.13
2018-09-18T20:52:39.689Z,5.27
2018-09-18T20:55:07.375Z,5.80
2018-09-18T20:57:35.990Z,5.43
2018-09-18T21:00:03.754Z,5.90
2018-09-18T21:02:31.443Z,4.83
2018-09-18T21:04:59.122Z,5.63
2018-09-18T21:07:26.727Z,5.10
2018-09-18T21:09:54.626Z,5.30
2018-09-18T21:12:22.294Z,5.57
2018-09-18T21:14:50.023Z,5.80
2018-09-18T21:17:21.050Z,5.30
2018-09-18T21:19:48.629Z,5.20
2018-09-18T21:22:16.315Z,5.70
2018-09-18T21:24:43.998Z,5.80
2018-09-18T21:27:11.708Z,5.97
2018-09-18T21:29:39.383Z,4.47
2018-09-18T21:32:07.131Z,6.20
2018-09-18T21:34:34.826Z,4.13
2018-09-18T21:37:02.467Z,5.97
2018-09-18T21:39:30.106Z,6.00
2018-09-18T21:41:57.866Z,5.53
2018-09-18T21:44:25.591Z,5.40
2018-09-18T21:46:53.218Z,5.30
2018-09-18T21:49:20.830Z,5.33
2018-09-18T21:51:48.530Z,6.40
2018-09-18T21:54:16.218Z,5.07
2018-09-18T21:56:43.883Z,5.60
2018-09-18T21:59:11.548Z,4.40
2018-09-18T22:01:39.191Z,5.10
2018-09-18T22:04:06.858Z,5.20
2018-09-18T22:06:34.472Z,5.83
2018-09-18T22:09:02.231Z,5.13
2018-09-18T22:11:29.858Z,4.47
2018-09-18T22:13:57.550Z,5.17
2018-09-18T22:16:25.240Z,5.83
2018-09-18T22:18:52.930Z,5.20
2018-09-18T22:21:20.623Z,5.50
2018-09-18T22:23:48.246Z,5.47
2018-09-18T22:26:15.878Z,4.67
2018-09-18T22:28:43.536Z,4.93
2018-09-18T22:31:11.174Z,4.63
2018-09-18T22:33:38.867Z,5.63
2018-09-18T22:36:06.551Z,4.47
2018-09-18T22:38:34.223Z,5.00
2018-09-18T22:41:01.909Z,4.73
2018-09-18T22:43:29.614Z,4.97
2018-09-18T22:45:57.290Z,5.73
2018-09-18T22:48:24.946Z,4.73
2018-09-18T22:50:52.684Z,5.17
2018-09-18T22:53:20.322Z,4.63
2018-09-18T22:55:47.946Z,4.63
2018-09-18T22:58:15.672Z,5.20
2018-09-18T23:00:43.403Z,5.40
2018-09-18T23:03:11.060Z,5.03
2018-09-18T23:05:38.754Z,4.87
2018-09-18T23:08:06.385Z,5.43
2018-09-18T23:10:34.006Z,4.70
2018-09-18T23:13:01.641Z,5.80
2018-09-18T23:15:29.311Z,5.47
2018-09-18T23:17:56.946Z,4.93
2018-09-18T23:20:24.623Z,4.87
2018-09-18T23:22:52.318Z,4.97
2018-09-18T23:25:19.963Z,4.40
2018-09-18T23:27:47.623Z,5.10
2018-09-18T23:30:15.319Z,4.70
2018-09-18T23:32:43.028Z,4.90
2018-09-18T23:35:14.188Z,5.37
2018-09-18T23:37:41.848Z,4.77
2018-09-18T23:40:10.494Z,4.03
2018-09-18T23:42:38.148Z,4.60
2018-09-18T23:45:05.834Z,4.70
2018-09-18T23:47:33.507Z,5.07
2018-09-18T23:50:01.206Z,4.07
2018-09-18T23:52:28.887Z,3.90
2018-09-18T23:54:56.598Z,4.50
2018-09-18T23:57:24.170Z,5.33
2018-09-18T23:59:51.925Z,5.00
